sensor_id;sensor_type;location;lat;lon;timestamp;P1;durP1;ratioP1;P2;durP2;ratioP2
10947;SDS011;5526;42.070;24.752;2023-06-05T00:00:25;8.43;;;6.40;;
10947;SDS011;5526;42.070;24.752;2023-06-05T00:02:53;7.50;;;6.85;;
10947;SDS011;5526;42.070;24.752;2023-06-05T00:05:22;8.15;;;6.55;;
10947;SDS011;5526;42.070;24.752;2023-06-05T00:07:51;7.53;;;6.05;;
10947;SDS011;5526;42.070;24.752;2023-06-05T00:10:18;7.63;;;5.55;;
10947;SDS011;5526;42.070;24.752;2023-06-05T00:12:45;8.95;;;5.88;;
10947;SDS011;5526;42.070;24.752;2023-06-05T00:15:12;9.10;;;5.65;;
10947;SDS011;5526;42.070;24.752;2023-06-05T00:17:39;7.57;;;5.93;;
10947;SDS011;5526;42.070;24.752;2023-06-05T00:20:07;11.18;;;5.97;;
10947;SDS011;5526;42.070;24.752;2023-06-05T00:22:36;11.55;;;5.97;;
10947;SDS011;5526;42.070;24.752;2023-06-05T00:25:04;11.40;;;6.50;;
10947;SDS011;5526;42.070;24.752;2023-06-05T00:27:32;7.60;;;5.93;;
10947;SDS011;5526;42.070;24.752;2023-06-05T00:29:59;8.23;;;5.72;;
10947;SDS011;5526;42.070;24.752;2023-06-05T00:32:26;12.90;;;6.70;;
10947;SDS011;5526;42.070;24.752;2023-06-05T00:34:53;8.98;;;6.07;;
10947;SDS011;5526;42.070;24.752;2023-06-05T00:37:20;10.02;;;6.28;;
10947;SDS011;5526;42.070;24.752;2023-06-05T00:39:48;9.15;;;6.25;;
10947;SDS011;5526;42.070;24.752;2023-06-05T00:42:15;7.38;;;6.55;;
10947;SDS011;5526;42.070;24.752;2023-06-05T00:44:42;7.75;;;6.95;;
10947;SDS011;5526;42.070;24.752;2023-06-05T00:47:09;9.23;;;7.10;;
10947;SDS011;5526;42.070;24.752;2023-06-05T00:49:37;11.20;;;7.63;;
10947;SDS011;5526;42.070;24.752;2023-06-05T00:52:04;10.30;;;7.45;;
10947;SDS011;5526;42.070;24.752;2023-06-05T00:54:32;12.63;;;7.05;;
10947;SDS011;5526;42.070;24.752;2023-06-05T00:57:01;10.48;;;7.20;;
10947;SDS011;5526;42.070;24.752;2023-06-05T00:59:29;10.63;;;6.55;;
10947;SDS011;5526;42.070;24.752;2023-06-05T01:01:59;9.05;;;6.88;;
10947;SDS011;5526;42.070;24.752;2023-06-05T01:04:27;8.32;;;6.60;;
10947;SDS011;5526;42.070;24.752;2023-06-05T01:06:54;10.82;;;6.57;;
10947;SDS011;5526;42.070;24.752;2023-06-05T01:09:22;8.90;;;6.72;;
10947;SDS011;5526;42.070;24.752;2023-06-05T01:11:50;7.90;;;6.13;;
10947;SDS011;5526;42.070;24.752;2023-06-05T01:14:24;9.43;;;6.47;;
10947;SDS011;5526;42.070;24.752;2023-06-05T01:16:56;11.52;;;7.05;;
10947;SDS011;5526;42.070;24.752;2023-06-05T01:19:26;9.63;;;6.70;;
10947;SDS011;5526;42.070;24.752;2023-06-05T01:21:54;10.40;;;6.55;;
10947;SDS011;5526;42.070;24.752;2023-06-05T01:24:23;9.07;;;6.38;;
10947;SDS011;5526;42.070;24.752;2023-06-05T01:26:53;7.88;;;6.18;;
10947;SDS011;5526;42.070;24.752;2023-06-05T01:29:30;10.40;;;6.38;;
10947;SDS011;5526;42.070;24.752;2023-06-05T01:32:02;9.10;;;6.47;;
10947;SDS011;5526;42.070;24.752;2023-06-05T01:34:36;10.95;;;6.90;;
10947;SDS011;5526;42.070;24.752;2023-06-05T01:37:09;9.15;;;7.20;;
10947;SDS011;5526;42.070;24.752;2023-06-05T01:39:41;11.27;;;6.97;;
10947;SDS011;5526;42.070;24.752;2023-06-05T01:42:09;10.30;;;7.15;;
10947;SDS011;5526;42.070;24.752;2023-06-05T01:44:37;9.15;;;6.80;;
10947;SDS011;5526;42.070;24.752;2023-06-05T01:47:06;8.45;;;6.60;;
10947;SDS011;5526;42.070;24.752;2023-06-05T01:49:34;12.45;;;6.70;;
10947;SDS011;5526;42.070;24.752;2023-06-05T01:52:01;9.77;;;6.70;;
10947;SDS011;5526;42.070;24.752;2023-06-05T01:54:28;10.55;;;7.20;;
10947;SDS011;5526;42.070;24.752;2023-06-05T01:57:00;9.80;;;6.80;;
10947;SDS011;5526;42.070;24.752;2023-06-05T01:59:29;12.02;;;7.20;;
10947;SDS011;5526;42.070;24.752;2023-06-05T02:01:57;10.40;;;8.95;;
10947;SDS011;5526;42.070;24.752;2023-06-05T02:04:24;12.32;;;9.23;;
10947;SDS011;5526;42.070;24.752;2023-06-05T02:06:52;10.43;;;9.43;;
10947;SDS011;5526;42.070;24.752;2023-06-05T02:09:19;14.02;;;9.65;;
10947;SDS011;5526;42.070;24.752;2023-06-05T02:11:46;10.48;;;8.73;;
10947;SDS011;5526;42.070;24.752;2023-06-05T02:14:15;13.30;;;9.18;;
10947;SDS011;5526;42.070;24.752;2023-06-05T02:16:41;10.35;;;9.18;;
10947;SDS011;5526;42.070;24.752;2023-06-05T02:19:08;11.80;;;10.45;;
10947;SDS011;5526;42.070;24.752;2023-06-05T02:21:36;11.95;;;10.60;;
10947;SDS011;5526;42.070;24.752;2023-06-05T02:24:03;13.38;;;10.95;;
10947;SDS011;5526;42.070;24.752;2023-06-05T02:26:32;12.57;;;11.27;;
10947;SDS011;5526;42.070;24.752;2023-06-05T02:28:59;13.10;;;11.55;;
10947;SDS011;5526;42.070;24.752;2023-06-05T02:31:27;13.55;;;12.20;;
10947;SDS011;5526;42.070;24.752;2023-06-05T02:33:55;11.73;;;10.50;;
10947;SDS011;5526;42.070;24.752;2023-06-05T02:36:23;12.02;;;10.70;;
10947;SDS011;5526;42.070;24.752;2023-06-05T02:38:50;13.50;;;9.88;;
10947;SDS011;5526;42.070;24.752;2023-06-05T02:41:18;10.93;;;9.77;;
10947;SDS011;5526;42.070;24.752;2023-06-05T02:43:46;11.32;;;10.05;;
10947;SDS011;5526;42.070;24.752;2023-06-05T02:46:13;10.57;;;9.32;;
10947;SDS011;5526;42.070;24.752;2023-06-05T02:48:42;12.02;;;9.60;;
10947;SDS011;5526;42.070;24.752;2023-06-05T02:51:09;10.35;;;9.23;;
10947;SDS011;5526;42.070;24.752;2023-06-05T02:53:36;12.73;;;8.70;;
10947;SDS011;5526;42.070;24.752;2023-06-05T02:56:03;11.07;;;8.75;;
10947;SDS011;5526;42.070;24.752;2023-06-05T02:58:30;8.85;;;7.70;;
10947;SDS011;5526;42.070;24.752;2023-06-05T03:00:59;8.93;;;7.82;;
10947;SDS011;5526;42.070;24.752;2023-06-05T03:03:28;12.02;;;8.23;;
10947;SDS011;5526;42.070;24.752;2023-06-05T03:05:58;8.38;;;6.65;;
10947;SDS011;5526;42.070;24.752;2023-06-05T03:08:29;6.43;;;5.00;;
10947;SDS011;5526;42.070;24.752;2023-06-05T03:10:57;8.20;;;5.30;;
10947;SDS011;5526;42.070;24.752;2023-06-05T03:13:24;8.38;;;5.00;;
10947;SDS011;5526;42.070;24.752;2023-06-05T03:15:51;10.48;;;4.90;;
10947;SDS011;5526;42.070;24.752;2023-06-05T03:18:22;7.22;;;4.47;;
10947;SDS011;5526;42.070;24.752;2023-06-05T03:20:50;6.03;;;3.80;;
10947;SDS011;5526;42.070;24.752;2023-06-05T03:23:22;5.68;;;4.22;;
10947;SDS011;5526;42.070;24.752;2023-06-05T03:25:49;6.78;;;4.20;;
10947;SDS011;5526;42.070;24.752;2023-06-05T03:28:17;7.38;;;4.10;;
10947;SDS011;5526;42.070;24.752;2023-06-05T03:30:44;6.88;;;4.20;;
10947;SDS011;5526;42.070;24.752;2023-06-05T03:33:11;7.32;;;4.65;;
10947;SDS011;5526;42.070;24.752;2023-06-05T03:35:40;7.40;;;4.80;;
10947;SDS011;5526;42.070;24.752;2023-06-05T03:38:07;7.50;;;4.45;;
10947;SDS011;5526;42.070;24.752;2023-06-05T03:40:36;9.98;;;5.57;;
10947;SDS011;5526;42.070;24.752;2023-06-05T03:43:05;7.20;;;4.85;;
10947;SDS011;5526;42.070;24.752;2023-06-05T03:45:32;7.07;;;4.47;;
10947;SDS011;5526;42.070;24.752;2023-06-05T03:47:59;9.73;;;4.40;;
10947;SDS011;5526;42.070;24.752;2023-06-05T03:50:26;7.43;;;4.78;;
10947;SDS011;5526;42.070;24.752;2023-06-05T03:52:55;7.57;;;5.03;;
10947;SDS011;5526;42.070;24.752;2023-06-05T03:55:28;6.47;;;4.57;;
10947;SDS011;5526;42.070;24.752;2023-06-05T03:58:10;6.60;;;4.10;;
10947;SDS011;5526;42.070;24.752;2023-06-05T04:00:39;6.45;;;3.53;;
10947;SDS011;5526;42.070;24.752;2023-06-05T04:03:07;7.63;;;4.00;;
10947;SDS011;5526;42.070;24.752;2023-06-05T04:05:36;8.52;;;3.40;;
10947;SDS011;5526;42.070;24.752;2023-06-05T04:08:03;4.15;;;3.30;;
10947;SDS011;5526;42.070;24.752;2023-06-05T04:10:30;8.63;;;3.50;;
10947;SDS011;5526;42.070;24.752;2023-06-05T04:12:58;6.18;;;3.15;;
10947;SDS011;5526;42.070;24.752;2023-06-05T04:15:26;7.57;;;3.90;;
10947;SDS011;5526;42.070;24.752;2023-06-05T04:17:54;6.00;;;3.33;;
10947;SDS011;5526;42.070;24.752;2023-06-05T04:20:22;6.80;;;3.78;;
10947;SDS011;5526;42.070;24.752;2023-06-05T04:22:49;6.35;;;3.72;;
10947;SDS011;5526;42.070;24.752;2023-06-05T04:25:16;4.75;;;3.03;;
10947;SDS011;5526;42.070;24.752;2023-06-05T04:27:44;8.48;;;3.10;;
10947;SDS011;5526;42.070;24.752;2023-06-05T04:30:13;7.38;;;3.42;;
10947;SDS011;5526;42.070;24.752;2023-06-05T04:32:42;4.35;;;3.38;;
10947;SDS011;5526;42.070;24.752;2023-06-05T04:35:18;7.95;;;3.95;;
10947;SDS011;5526;42.070;24.752;2023-06-05T04:37:45;8.45;;;4.10;;
10947;SDS011;5526;42.070;24.752;2023-06-05T04:40:12;8.40;;;4.53;;
10947;SDS011;5526;42.070;24.752;2023-06-05T04:42:40;8.40;;;4.35;;
10947;SDS011;5526;42.070;24.752;2023-06-05T04:45:08;14.48;;;4.45;;
10947;SDS011;5526;42.070;24.752;2023-06-05T04:47:35;9.90;;;4.82;;
10947;SDS011;5526;42.070;24.752;2023-06-05T04:50:04;8.70;;;4.93;;
10947;SDS011;5526;42.070;24.752;2023-06-05T04:52:34;9.00;;;5.00;;
10947;SDS011;5526;42.070;24.752;2023-06-05T04:55:05;9.88;;;4.82;;
10947;SDS011;5526;42.070;24.752;2023-06-05T04:57:33;9.30;;;6.25;;
10947;SDS011;5526;42.070;24.752;2023-06-05T05:00:00;10.57;;;6.13;;
10947;SDS011;5526;42.070;24.752;2023-06-05T05:02:29;10.45;;;6.72;;
10947;SDS011;5526;42.070;24.752;2023-06-05T05:04:57;7.05;;;5.32;;
10947;SDS011;5526;42.070;24.752;2023-06-05T05:07:25;10.57;;;6.30;;
10947;SDS011;5526;42.070;24.752;2023-06-05T05:09:53;8.55;;;6.50;;
10947;SDS011;5526;42.070;24.752;2023-06-05T05:12:20;10.75;;;6.95;;
10947;SDS011;5526;42.070;24.752;2023-06-05T05:14:47;7.78;;;6.75;;
10947;SDS011;5526;42.070;24.752;2023-06-05T05:17:15;8.52;;;7.35;;
10947;SDS011;5526;42.070;24.752;2023-06-05T05:19:44;11.05;;;7.57;;
10947;SDS011;5526;42.070;24.752;2023-06-05T05:22:11;12.52;;;7.40;;
10947;SDS011;5526;42.070;24.752;2023-06-05T05:24:40;10.70;;;7.32;;
10947;SDS011;5526;42.070;24.752;2023-06-05T05:27:07;8.15;;;6.35;;
10947;SDS011;5526;42.070;24.752;2023-06-05T05:29:34;12.02;;;6.97;;
10947;SDS011;5526;42.070;24.752;2023-06-05T05:32:01;9.15;;;6.35;;
10947;SDS011;5526;42.070;24.752;2023-06-05T05:34:29;10.65;;;6.25;;
10947;SDS011;5526;42.070;24.752;2023-06-05T05:36:56;13.10;;;6.93;;
10947;SDS011;5526;42.070;24.752;2023-06-05T05:39:23;9.52;;;6.78;;
10947;SDS011;5526;42.070;24.752;2023-06-05T05:41:51;11.82;;;6.53;;
10947;SDS011;5526;42.070;24.752;2023-06-05T05:44:18;8.70;;;6.95;;
10947;SDS011;5526;42.070;24.752;2023-06-05T05:46:46;9.70;;;6.20;;
10947;SDS011;5526;42.070;24.752;2023-06-05T05:49:13;11.73;;;7.40;;
10947;SDS011;5526;42.070;24.752;2023-06-05T05:51:40;9.55;;;6.50;;
10947;SDS011;5526;42.070;24.752;2023-06-05T05:54:07;9.13;;;6.10;;
10947;SDS011;5526;42.070;24.752;2023-06-05T05:56:34;7.95;;;5.57;;
10947;SDS011;5526;42.070;24.752;2023-06-05T05:59:03;12.80;;;6.53;;
10947;SDS011;5526;42.070;24.752;2023-06-05T06:01:30;13.93;;;9.27;;
10947;SDS011;5526;42.070;24.752;2023-06-05T06:03:57;16.13;;;8.60;;
10947;SDS011;5526;42.070;24.752;2023-06-05T06:06:24;12.50;;;8.10;;
10947;SDS011;5526;42.070;24.752;2023-06-05T06:08:51;12.25;;;8.18;;
10947;SDS011;5526;42.070;24.752;2023-06-05T06:11:18;23.60;;;16.38;;
10947;SDS011;5526;42.070;24.752;2023-06-05T06:13:45;23.05;;;15.70;;
10947;SDS011;5526;42.070;24.752;2023-06-05T06:16:14;23.48;;;16.67;;
10947;SDS011;5526;42.070;24.752;2023-06-05T06:18:41;26.02;;;16.75;;
10947;SDS011;5526;42.070;24.752;2023-06-05T06:21:08;22.85;;;15.20;;
10947;SDS011;5526;42.070;24.752;2023-06-05T06:23:35;24.98;;;17.63;;
10947;SDS011;5526;42.070;24.752;2023-06-05T06:26:03;29.80;;;19.35;;
10947;SDS011;5526;42.070;24.752;2023-06-05T06:28:31;29.10;;;18.05;;
10947;SDS011;5526;42.070;24.752;2023-06-05T06:30:58;25.63;;;19.20;;
10947;SDS011;5526;42.070;24.752;2023-06-05T06:33:27;30.50;;;19.27;;
10947;SDS011;5526;42.070;24.752;2023-06-05T06:35:54;30.63;;;20.17;;
10947;SDS011;5526;42.070;24.752;2023-06-05T06:38:23;27.98;;;20.55;;
10947;SDS011;5526;42.070;24.752;2023-06-05T06:40:55;27.75;;;20.80;;
10947;SDS011;5526;42.070;24.752;2023-06-05T06:43:23;32.75;;;21.88;;
10947;SDS011;5526;42.070;24.752;2023-06-05T06:45:50;27.73;;;22.13;;
10947;SDS011;5526;42.070;24.752;2023-06-05T06:48:18;33.05;;;25.40;;
10947;SDS011;5526;42.070;24.752;2023-06-05T06:50:46;35.47;;;25.95;;
10947;SDS011;5526;42.070;24.752;2023-06-05T06:53:14;35.55;;;25.58;;
10947;SDS011;5526;42.070;24.752;2023-06-05T06:55:41;33.80;;;25.17;;
10947;SDS011;5526;42.070;24.752;2023-06-05T06:58:08;34.22;;;25.73;;
10947;SDS011;5526;42.070;24.752;2023-06-05T07:00:35;32.75;;;25.15;;
10947;SDS011;5526;42.070;24.752;2023-06-05T07:03:03;34.13;;;24.58;;
10947;SDS011;5526;42.070;24.752;2023-06-05T07:05:30;34.20;;;24.90;;
10947;SDS011;5526;42.070;24.752;2023-06-05T07:07:59;30.90;;;24.30;;
10947;SDS011;5526;42.070;24.752;2023-06-05T07:10:27;29.50;;;21.90;;
10947;SDS011;5526;42.070;24.752;2023-06-05T07:12:54;30.27;;;22.63;;
10947;SDS011;5526;42.070;24.752;2023-06-05T07:15:21;31.17;;;23.92;;
10947;SDS011;5526;42.070;24.752;2023-06-05T07:17:49;30.30;;;23.27;;
10947;SDS011;5526;42.070;24.752;2023-06-05T07:20:16;27.08;;;22.25;;
10947;SDS011;5526;42.070;24.752;2023-06-05T07:22:44;25.58;;;21.88;;
10947;SDS011;5526;42.070;24.752;2023-06-05T07:25:13;31.95;;;23.67;;
10947;SDS011;5526;42.070;24.752;2023-06-05T07:27:42;30.60;;;25.15;;
10947;SDS011;5526;42.070;24.752;2023-06-05T07:30:10;29.77;;;23.15;;
10947;SDS011;5526;42.070;24.752;2023-06-05T07:32:39;28.85;;;22.75;;
10947;SDS011;5526;42.070;24.752;2023-06-05T07:35:08;28.75;;;25.15;;
10947;SDS011;5526;42.070;24.752;2023-06-05T07:37:35;26.05;;;21.70;;
10947;SDS011;5526;42.070;24.752;2023-06-05T07:40:03;25.05;;;21.85;;
10947;SDS011;5526;42.070;24.752;2023-06-05T07:42:32;28.02;;;22.25;;
10947;SDS011;5526;42.070;24.752;2023-06-05T07:44:59;28.83;;;21.73;;
10947;SDS011;5526;42.070;24.752;2023-06-05T07:47:27;25.15;;;21.48;;
10947;SDS011;5526;42.070;24.752;2023-06-05T07:49:57;25.92;;;20.85;;
10947;SDS011;5526;42.070;24.752;2023-06-05T07:52:25;27.10;;;20.98;;
10947;SDS011;5526;42.070;24.752;2023-06-05T07:54:52;24.80;;;20.92;;
10947;SDS011;5526;42.070;24.752;2023-06-05T07:57:19;25.08;;;20.35;;
10947;SDS011;5526;42.070;24.752;2023-06-05T07:59:48;23.95;;;19.88;;
10947;SDS011;5526;42.070;24.752;2023-06-05T08:02:16;24.40;;;20.20;;
10947;SDS011;5526;42.070;24.752;2023-06-05T08:04:43;22.50;;;19.83;;
10947;SDS011;5526;42.070;24.752;2023-06-05T08:07:11;24.65;;;19.48;;
10947;SDS011;5526;42.070;24.752;2023-06-05T08:09:38;24.10;;;20.20;;
10947;SDS011;5526;42.070;24.752;2023-06-05T08:12:05;22.13;;;19.80;;
10947;SDS011;5526;42.070;24.752;2023-06-05T08:14:33;24.35;;;20.05;;
10947;SDS011;5526;42.070;24.752;2023-06-05T08:17:03;23.17;;;19.55;;
10947;SDS011;5526;42.070;24.752;2023-06-05T08:19:30;18.23;;;16.33;;
10947;SDS011;5526;42.070;24.752;2023-06-05T08:21:57;16.55;;;14.95;;
10947;SDS011;5526;42.070;24.752;2023-06-05T08:24:24;18.20;;;15.45;;
10947;SDS011;5526;42.070;24.752;2023-06-05T08:26:53;15.40;;;14.02;;
10947;SDS011;5526;42.070;24.752;2023-06-05T08:29:21;16.42;;;14.15;;
10947;SDS011;5526;42.070;24.752;2023-06-05T08:31:48;15.25;;;13.75;;
10947;SDS011;5526;42.070;24.752;2023-06-05T08:34:16;14.43;;;13.02;;
10947;SDS011;5526;42.070;24.752;2023-06-05T08:36:44;14.88;;;13.48;;
10947;SDS011;5526;42.070;24.752;2023-06-05T08:39:11;15.00;;;13.55;;
10947;SDS011;5526;42.070;24.752;2023-06-05T08:41:38;16.38;;;14.68;;
10947;SDS011;5526;42.070;24.752;2023-06-05T08:44:06;15.63;;;14.02;;
10947;SDS011;5526;42.070;24.752;2023-06-05T08:46:33;15.02;;;13.52;;
10947;SDS011;5526;42.070;24.752;2023-06-05T08:49:06;15.75;;;14.20;;
10947;SDS011;5526;42.070;24.752;2023-06-05T08:51:37;15.35;;;13.75;;
10947;SDS011;5526;42.070;24.752;2023-06-05T08:54:06;16.90;;;15.23;;
10947;SDS011;5526;42.070;24.752;2023-06-05T08:56:37;16.65;;;15.05;;
10947;SDS011;5526;42.070;24.752;2023-06-05T08:59:05;15.57;;;14.15;;
10947;SDS011;5526;42.070;24.752;2023-06-05T09:01:33;16.60;;;14.48;;
10947;SDS011;5526;42.070;24.752;2023-06-05T09:04:00;15.68;;;14.18;;
10947;SDS011;5526;42.070;24.752;2023-06-05T09:06:28;16.75;;;15.05;;
10947;SDS011;5526;42.070;24.752;2023-06-05T09:08:59;15.23;;;13.27;;
10947;SDS011;5526;42.070;24.752;2023-06-05T09:11:28;14.15;;;12.75;;
10947;SDS011;5526;42.070;24.752;2023-06-05T09:13:56;15.98;;;14.10;;
10947;SDS011;5526;42.070;24.752;2023-06-05T09:16:31;13.05;;;11.80;;
10947;SDS011;5526;42.070;24.752;2023-06-05T09:19:01;14.88;;;13.23;;
10947;SDS011;5526;42.070;24.752;2023-06-05T09:21:29;13.48;;;12.07;;
10947;SDS011;5526;42.070;24.752;2023-06-05T09:26:55;13.98;;;11.93;;
10947;SDS011;5526;42.070;24.752;2023-06-05T09:29:24;12.73;;;11.52;;
10947;SDS011;5526;42.070;24.752;2023-06-05T09:31:53;13.32;;;11.52;;
10947;SDS011;5526;42.070;24.752;2023-06-05T09:34:22;12.90;;;11.30;;
10947;SDS011;5526;42.070;24.752;2023-06-05T09:36:50;12.70;;;10.13;;
10947;SDS011;5526;42.070;24.752;2023-06-05T09:39:20;10.80;;;9.70;;
10947;SDS011;5526;42.070;24.752;2023-06-05T09:41:51;10.15;;;8.50;;
10947;SDS011;5526;42.070;24.752;2023-06-05T09:44:19;9.20;;;8.23;;
10947;SDS011;5526;42.070;24.752;2023-06-05T09:46:53;11.65;;;9.15;;
10947;SDS011;5526;42.070;24.752;2023-06-05T09:49:23;10.32;;;9.20;;
10947;SDS011;5526;42.070;24.752;2023-06-05T09:51:51;9.10;;;8.27;;
10947;SDS011;5526;42.070;24.752;2023-06-05T09:54:19;9.95;;;8.55;;
10947;SDS011;5526;42.070;24.752;2023-06-05T09:56:48;9.70;;;8.65;;
10947;SDS011;5526;42.070;24.752;2023-06-05T09:59:18;7.72;;;6.93;;
10947;SDS011;5526;42.070;24.752;2023-06-05T10:01:49;6.72;;;5.95;;
10947;SDS011;5526;42.070;24.752;2023-06-05T10:04:19;7.28;;;6.40;;
10947;SDS011;5526;42.070;24.752;2023-06-05T10:06:48;6.43;;;5.90;;
10947;SDS011;5526;42.070;24.752;2023-06-05T10:09:17;5.32;;;4.93;;
10947;SDS011;5526;42.070;24.752;2023-06-05T10:11:47;5.63;;;5.10;;
10947;SDS011;5526;42.070;24.752;2023-06-05T10:14:16;5.70;;;5.20;;
10947;SDS011;5526;42.070;24.752;2023-06-05T10:16:45;6.13;;;5.60;;
10947;SDS011;5526;42.070;24.752;2023-06-05T10:19:18;5.53;;;5.10;;
10947;SDS011;5526;42.070;24.752;2023-06-05T10:21:46;6.03;;;5.53;;
10947;SDS011;5526;42.070;24.752;2023-06-05T10:24:15;6.82;;;5.00;;
10947;SDS011;5526;42.070;24.752;2023-06-05T10:33:25;5.25;;;4.43;;
10947;SDS011;5526;42.070;24.752;2023-06-05T10:36:05;5.43;;;4.93;;
10947;SDS011;5526;42.070;24.752;2023-06-05T10:38:41;5.30;;;4.90;;
10947;SDS011;5526;42.070;24.752;2023-06-05T10:41:10;4.65;;;4.28;;
10947;SDS011;5526;42.070;24.752;2023-06-05T10:43:45;4.70;;;4.30;;
10947;SDS011;5526;42.070;24.752;2023-06-05T10:46:29;4.93;;;4.30;;
10947;SDS011;5526;42.070;24.752;2023-06-05T10:49:09;4.80;;;4.40;;
10947;SDS011;5526;42.070;24.752;2023-06-05T10:51:38;6.20;;;4.80;;
10947;SDS011;5526;42.070;24.752;2023-06-05T10:54:08;4.88;;;4.43;;
10947;SDS011;5526;42.070;24.752;2023-06-05T10:56:52;4.95;;;4.40;;
10947;SDS011;5526;42.070;24.752;2023-06-05T10:59:25;4.22;;;3.90;;
10947;SDS011;5526;42.070;24.752;2023-06-05T11:05:06;4.60;;;4.20;;
10947;SDS011;5526;42.070;24.752;2023-06-05T11:07:36;6.25;;;4.20;;
10947;SDS011;5526;42.070;24.752;2023-06-05T11:10:09;5.30;;;3.95;;
10947;SDS011;5526;42.070;24.752;2023-06-05T11:12:56;3.67;;;3.45;;
10947;SDS011;5526;42.070;24.752;2023-06-05T11:15:34;4.20;;;3.80;;
10947;SDS011;5526;42.070;24.752;2023-06-05T11:20:56;3.70;;;3.30;;
10947;SDS011;5526;42.070;24.752;2023-06-05T11:23:25;3.78;;;3.47;;
10947;SDS011;5526;42.070;24.752;2023-06-05T11:25:55;5.10;;;3.92;;
10947;SDS011;5526;42.070;24.752;2023-06-05T11:28:39;4.07;;;3.60;;
10947;SDS011;5526;42.070;24.752;2023-06-05T11:31:07;5.05;;;3.35;;
10947;SDS011;5526;42.070;24.752;2023-06-05T11:33:34;5.38;;;3.50;;
10947;SDS011;5526;42.070;24.752;2023-06-05T11:36:03;3.67;;;3.10;;
10947;SDS011;5526;42.070;24.752;2023-06-05T11:38:32;3.22;;;3.03;;
10947;SDS011;5526;42.070;24.752;2023-06-05T11:40:59;3.78;;;3.42;;
10947;SDS011;5526;42.070;24.752;2023-06-05T11:43:32;4.90;;;3.72;;
10947;SDS011;5526;42.070;24.752;2023-06-05T11:45:59;2.95;;;2.75;;
10947;SDS011;5526;42.070;24.752;2023-06-05T11:48:26;3.65;;;3.05;;
10947;SDS011;5526;42.070;24.752;2023-06-05T11:50:54;5.22;;;3.20;;
10947;SDS011;5526;42.070;24.752;2023-06-05T11:53:25;3.00;;;2.70;;
10947;SDS011;5526;42.070;24.752;2023-06-05T11:55:52;4.07;;;2.90;;
10947;SDS011;5526;42.070;24.752;2023-06-05T11:58:33;2.97;;;2.67;;
10947;SDS011;5526;42.070;24.752;2023-06-05T12:01:06;4.22;;;3.15;;
10947;SDS011;5526;42.070;24.752;2023-06-05T12:03:38;3.35;;;3.05;;
10947;SDS011;5526;42.070;24.752;2023-06-05T12:06:05;4.55;;;2.80;;
10947;SDS011;5526;42.070;24.752;2023-06-05T12:08:34;2.95;;;2.67;;
10947;SDS011;5526;42.070;24.752;2023-06-05T12:11:02;3.05;;;2.70;;
10947;SDS011;5526;42.070;24.752;2023-06-05T12:13:45;4.57;;;3.17;;
10947;SDS011;5526;42.070;24.752;2023-06-05T12:16:13;3.13;;;2.83;;
10947;SDS011;5526;42.070;24.752;2023-06-05T12:18:41;3.50;;;2.80;;
10947;SDS011;5526;42.070;24.752;2023-06-05T12:21:21;4.07;;;3.03;;
10947;SDS011;5526;42.070;24.752;2023-06-05T12:23:51;4.45;;;2.80;;
10947;SDS011;5526;42.070;24.752;2023-06-05T12:26:26;3.45;;;3.15;;
10947;SDS011;5526;42.070;24.752;2023-06-05T12:29:01;3.72;;;2.58;;
10947;SDS011;5526;42.070;24.752;2023-06-05T12:31:33;4.03;;;2.88;;
10947;SDS011;5526;42.070;24.752;2023-06-05T12:34:02;4.30;;;2.92;;
10947;SDS011;5526;42.070;24.752;2023-06-05T12:36:30;4.65;;;2.90;;
10947;SDS011;5526;42.070;24.752;2023-06-05T12:39:03;3.20;;;2.90;;
10947;SDS011;5526;42.070;24.752;2023-06-05T12:41:31;4.10;;;3.15;;
10947;SDS011;5526;42.070;24.752;2023-06-05T12:43:59;3.17;;;2.78;;
10947;SDS011;5526;42.070;24.752;2023-06-05T12:46:27;2.63;;;2.50;;
10947;SDS011;5526;42.070;24.752;2023-06-05T12:48:54;3.72;;;2.88;;
10947;SDS011;5526;42.070;24.752;2023-06-05T12:51:22;3.55;;;3.05;;
10947;SDS011;5526;42.070;24.752;2023-06-05T12:53:51;3.80;;;2.92;;
10947;SDS011;5526;42.070;24.752;2023-06-05T12:56:20;3.05;;;2.80;;
10947;SDS011;5526;42.070;24.752;2023-06-05T12:58:52;2.90;;;2.70;;
10947;SDS011;5526;42.070;24.752;2023-06-05T13:01:20;5.28;;;3.17;;
10947;SDS011;5526;42.070;24.752;2023-06-05T13:03:48;5.03;;;3.13;;
10947;SDS011;5526;42.070;24.752;2023-06-05T13:06:16;4.28;;;2.90;;
10947;SDS011;5526;42.070;24.752;2023-06-05T13:08:43;4.38;;;3.00;;
10947;SDS011;5526;42.070;24.752;2023-06-05T13:11:11;3.58;;;3.28;;
10947;SDS011;5526;42.070;24.752;2023-06-05T13:13:41;2.95;;;2.75;;
10947;SDS011;5526;42.070;24.752;2023-06-05T13:16:09;3.55;;;3.15;;
10947;SDS011;5526;42.070;24.752;2023-06-05T13:18:36;3.30;;;3.00;;
10947;SDS011;5526;42.070;24.752;2023-06-05T13:21:04;3.72;;;2.72;;
10947;SDS011;5526;42.070;24.752;2023-06-05T13:23:32;4.35;;;3.10;;
10947;SDS011;5526;42.070;24.752;2023-06-05T13:25:59;3.88;;;3.17;;
10947;SDS011;5526;42.070;24.752;2023-06-05T13:28:28;4.13;;;3.10;;
10947;SDS011;5526;42.070;24.752;2023-06-05T13:30:56;3.63;;;2.80;;
10947;SDS011;5526;42.070;24.752;2023-06-05T13:33:24;3.92;;;2.92;;
10947;SDS011;5526;42.070;24.752;2023-06-05T13:35:51;5.25;;;2.92;;
10947;SDS011;5526;42.070;24.752;2023-06-05T13:38:19;2.80;;;2.60;;
10947;SDS011;5526;42.070;24.752;2023-06-05T13:40:46;3.13;;;2.90;;
10947;SDS011;5526;42.070;24.752;2023-06-05T13:43:17;3.42;;;3.13;;
10947;SDS011;5526;42.070;24.752;2023-06-05T13:45:44;3.10;;;2.80;;
10947;SDS011;5526;42.070;24.752;2023-06-05T13:48:13;3.97;;;3.13;;
10947;SDS011;5526;42.070;24.752;2023-06-05T13:50:40;2.58;;;2.47;;
10947;SDS011;5526;42.070;24.752;2023-06-05T13:53:08;5.72;;;2.83;;
10947;SDS011;5526;42.070;24.752;2023-06-05T13:55:35;3.30;;;3.00;;
10947;SDS011;5526;42.070;24.752;2023-06-05T13:58:04;3.35;;;3.05;;
10947;SDS011;5526;42.070;24.752;2023-06-05T14:00:32;3.20;;;3.00;;
10947;SDS011;5526;42.070;24.752;2023-06-05T14:02:59;2.83;;;2.58;;
10947;SDS011;5526;42.070;24.752;2023-06-05T14:05:28;3.58;;;3.28;;
10947;SDS011;5526;42.070;24.752;2023-06-05T14:07:57;3.25;;;2.95;;
10947;SDS011;5526;42.070;24.752;2023-06-05T14:10:24;3.00;;;2.80;;
10947;SDS011;5526;42.070;24.752;2023-06-05T14:12:52;4.68;;;2.97;;
10947;SDS011;5526;42.070;24.752;2023-06-05T14:15:20;3.28;;;3.08;;
10947;SDS011;5526;42.070;24.752;2023-06-05T14:17:48;3.40;;;2.90;;
10947;SDS011;5526;42.070;24.752;2023-06-05T14:20:17;4.05;;;2.83;;
10947;SDS011;5526;42.070;24.752;2023-06-05T14:22:46;3.00;;;2.80;;
10947;SDS011;5526;42.070;24.752;2023-06-05T14:25:13;4.00;;;2.97;;
10947;SDS011;5526;42.070;24.752;2023-06-05T14:27:41;3.20;;;2.90;;
10947;SDS011;5526;42.070;24.752;2023-06-05T14:30:08;4.00;;;3.08;;
10947;SDS011;5526;42.070;24.752;2023-06-05T14:32:36;4.22;;;2.60;;
10947;SDS011;5526;42.070;24.752;2023-06-05T14:35:03;4.57;;;3.13;;
10947;SDS011;5526;42.070;24.752;2023-06-05T14:37:30;6.75;;;3.45;;
10947;SDS011;5526;42.070;24.752;2023-06-05T14:39:59;8.60;;;4.00;;
10947;SDS011;5526;42.070;24.752;2023-06-05T14:42:26;3.50;;;2.90;;
10947;SDS011;5526;42.070;24.752;2023-06-05T14:44:53;2.70;;;2.50;;
10947;SDS011;5526;42.070;24.752;2023-06-05T14:47:21;2.50;;;2.30;;
10947;SDS011;5526;42.070;24.752;2023-06-05T14:49:48;3.25;;;2.80;;
10947;SDS011;5526;42.070;24.752;2023-06-05T14:52:15;3.35;;;2.42;;
10947;SDS011;5526;42.070;24.752;2023-06-05T14:54:43;2.88;;;2.67;;
10947;SDS011;5526;42.070;24.752;2023-06-05T14:57:12;4.85;;;3.05;;
10947;SDS011;5526;42.070;24.752;2023-06-05T14:59:39;4.57;;;2.50;;
10947;SDS011;5526;42.070;24.752;2023-06-05T15:02:07;3.38;;;3.05;;